createdAt,value
2022-09-16T00:01:24.164Z,25.24
2022-09-16T00:03:56.690Z,25.20
2022-09-16T00:06:28.457Z,25.02
2022-09-16T00:08:58.364Z,24.84
2022-09-16T00:11:26.693Z,24.90
2022-09-16T00:13:55.381Z,24.88
2022-09-16T00:16:26.942Z,24.73
2022-09-16T00:18:56.555Z,24.90
2022-09-16T00:21:26.879Z,24.95
2022-09-16T00:23:56.245Z,25.02
2022-09-16T00:26:25.888Z,25.13
2022-09-16T00:28:54.477Z,24.98
2022-09-16T00:31:22.930Z,24.94
2022-09-16T00:33:51.629Z,24.84
2022-09-16T00:36:21.478Z,24.76
2022-09-16T00:38:55.008Z,24.83
2022-09-16T00:41:27.892Z,24.91
2022-09-16T00:43:58.854Z,25.02
2022-09-16T00:46:33.615Z,25.06
2022-09-16T00:49:06.041Z,24.94
2022-09-16T00:51:35.229Z,25.03
2022-09-16T00:54:09.723Z,25.10
2022-09-16T00:56:42.223Z,24.77
2022-09-16T00:59:15.855Z,24.44
2022-09-16T01:01:45.483Z,23.97
2022-09-16T01:04:20.294Z,23.29
2022-09-16T01:06:50.500Z,22.67
2022-09-16T01:09:24.181Z,22.70
2022-09-16T01:11:52.930Z,22.75
2022-09-16T01:14:42.939Z,23.10
2022-09-16T01:17:29.072Z,23.44
2022-09-16T01:20:16.167Z,23.71
2022-09-16T01:23:03.065Z,23.97
2022-09-16T01:25:50.379Z,23.94
2022-09-16T01:28:49.706Z,24.20
2022-09-16T01:31:23.735Z,24.20
2022-09-16T01:34:01.296Z,24.35
2022-09-16T01:36:42.228Z,24.46
2022-09-16T01:39:23.404Z,24.50
2022-09-16T01:42:05.945Z,24.30
2022-09-16T01:44:46.021Z,24.57
2022-09-16T01:47:23.894Z,24.68
2022-09-16T01:50:03.215Z,24.39
2022-09-16T01:52:43.849Z,24.58
2022-09-16T01:55:19.455Z,24.66
2022-09-16T01:57:55.079Z,24.78
2022-09-16T02:00:23.996Z,24.85
2022-09-16T02:02:59.787Z,24.93
2022-09-16T02:05:34.520Z,24.98
2022-09-16T02:08:07.511Z,25.08
2022-09-16T02:10:41.821Z,25.10
2022-09-16T02:13:18.665Z,25.02
2022-09-16T02:15:50.258Z,25.07
2022-09-16T02:18:26.168Z,25.14
2022-09-16T02:20:59.046Z,25.18
2022-09-16T02:23:33.404Z,25.20
2022-09-16T02:26:06.587Z,25.18
2022-09-16T02:28:39.963Z,25.22
2022-09-16T02:31:10.496Z,25.20
2022-09-16T02:33:46.444Z,25.27
2022-09-16T02:36:18.847Z,25.27
2022-09-16T02:38:50.689Z,25.31
2022-09-16T02:41:19.435Z,25.35
2022-09-16T02:43:47.997Z,25.40
2022-09-16T02:46:23.725Z,25.43
2022-09-16T02:49:04.227Z,25.43
2022-09-16T02:51:42.029Z,25.36
2022-09-16T02:54:17.961Z,25.38
2022-09-16T02:56:46.344Z,25.37
2022-09-16T02:59:16.817Z,25.42
2022-09-16T03:01:47.187Z,25.33
2022-09-16T03:04:19.736Z,25.41
2022-09-16T03:06:48.570Z,25.46
2022-09-16T03:09:19.355Z,25.48
2022-09-16T03:12:12.218Z,25.24
2022-09-16T03:15:19.880Z,25.27
2022-09-16T03:18:17.131Z,24.94
2022-09-16T03:20:56.133Z,24.99
2022-09-16T03:23:45.138Z,25.13
2022-09-16T03:26:21.773Z,25.14
2022-09-16T03:29:01.132Z,24.88
2022-09-16T03:31:33.546Z,25.06
2022-09-16T03:34:08.088Z,25.24
2022-09-16T03:36:44.741Z,25.35
2022-09-16T03:39:14.487Z,25.37
2022-09-16T03:41:43.591Z,25.45
2022-09-16T03:44:13.140Z,25.50
2022-09-16T03:46:41.484Z,25.58
2022-09-16T03:49:10.930Z,25.67
2022-09-16T03:51:40.685Z,25.70
2022-09-16T03:54:09.927Z,25.75
2022-09-16T03:56:38.489Z,25.81
2022-09-16T03:59:06.752Z,25.87
2022-09-16T04:01:35.131Z,25.88
2022-09-16T04:04:04.133Z,25.94
2022-09-16T04:06:32.458Z,25.92
2022-09-16T04:09:03.664Z,25.90
2022-09-16T04:11:32.307Z,25.94
2022-09-16T04:14:00.644Z,26.00
2022-09-16T04:16:29.012Z,26.06
2022-09-16T04:18:57.828Z,26.11
2022-09-16T04:21:26.325Z,26.04
2022-09-16T04:23:55.701Z,25.96
2022-09-16T04:26:25.765Z,25.93
2022-09-16T04:28:55.547Z,25.98
2022-09-16T04:31:24.161Z,26.03
2022-09-16T04:33:52.951Z,26.06
2022-09-16T04:36:21.621Z,26.10
2022-09-16T04:38:50.584Z,26.16
2022-09-16T04:41:21.380Z,26.12
2022-09-16T04:43:54.358Z,26.19
2022-09-16T04:46:23.580Z,26.14
2022-09-16T04:48:53.346Z,26.13
2022-09-16T04:51:22.545Z,26.14
2022-09-16T04:53:51.683Z,26.10
2022-09-16T04:56:22.360Z,26.09
2022-09-16T04:58:53.529Z,26.11
2022-09-16T05:01:25.243Z,26.15
2022-09-16T05:03:55.633Z,26.22
2022-09-16T05:06:26.547Z,26.22
2022-09-16T05:08:57.002Z,26.18
2022-09-16T05:11:27.631Z,26.17
2022-09-16T05:13:59.760Z,26.23
2022-09-16T05:16:28.893Z,26.17
2022-09-16T05:18:59.847Z,26.17
2022-09-16T05:21:30.001Z,26.14
2022-09-16T05:24:01.748Z,26.19
2022-09-16T05:26:32.588Z,26.22
2022-09-16T05:29:04.192Z,26.24
2022-09-16T05:31:34.987Z,26.23
2022-09-16T05:34:05.953Z,26.25
2022-09-16T05:36:37.762Z,26.33
2022-09-16T05:39:24.115Z,26.37
2022-09-16T05:41:55.754Z,26.38
2022-09-16T05:44:26.632Z,26.47
2022-09-16T05:46:55.316Z,26.50
2022-09-16T05:49:24.095Z,26.53
2022-09-16T05:51:53.739Z,26.36
2022-09-16T05:54:25.375Z,26.35
2022-09-16T05:56:54.422Z,26.34
2022-09-16T05:59:24.084Z,26.25
2022-09-16T06:01:53.924Z,26.31
2022-09-16T06:04:22.827Z,26.25
2022-09-16T06:06:51.135Z,26.23
2022-09-16T06:09:21.821Z,26.23
2022-09-16T06:11:52.191Z,26.20
2022-09-16T06:14:22.689Z,26.28
2022-09-16T06:16:53.470Z,26.25
2022-09-16T06:19:21.777Z,26.34
2022-09-16T06:21:50.235Z,26.36
2022-09-16T06:24:20.365Z,26.43
2022-09-16T06:26:50.121Z,26.39
2022-09-16T06:29:18.903Z,26.53
2022-09-16T06:31:47.796Z,26.64
2022-09-16T06:34:19.184Z,26.71
2022-09-16T06:36:48.224Z,26.82
2022-09-16T06:39:18.265Z,26.77
2022-09-16T06:41:51.986Z,26.81
2022-09-16T06:44:24.748Z,26.90
2022-09-16T06:46:53.052Z,27.08
2022-09-16T06:49:22.798Z,27.12
2022-09-16T06:51:51.687Z,27.21
2022-09-16T06:54:19.922Z,27.20
2022-09-16T06:56:49.644Z,27.18
2022-09-16T06:59:18.106Z,27.28
2022-09-16T07:01:46.459Z,27.25
2022-09-16T07:04:14.806Z,27.30
2022-09-16T07:07:08.037Z,27.37
2022-09-16T07:09:34.608Z,27.46
2022-09-16T07:12:03.675Z,27.49
2022-09-16T07:14:32.685Z,27.56
2022-09-16T07:17:01.663Z,27.66
2022-09-16T07:19:30.537Z,27.67
2022-09-16T07:22:00.284Z,27.74
2022-09-16T07:24:28.592Z,27.73
2022-09-16T07:26:57.213Z,27.67
2022-09-16T07:29:25.883Z,27.71
2022-09-16T07:31:54.317Z,27.78
2022-09-16T07:34:23.236Z,27.71
2022-09-16T07:36:51.955Z,27.83
2022-09-16T07:39:22.402Z,27.44
2022-09-16T07:41:51.068Z,27.49
2022-09-16T07:44:20.820Z,27.69
2022-09-16T07:46:51.391Z,27.88
2022-09-16T07:49:20.335Z,27.21
2022-09-16T07:51:49.325Z,26.72
2022-09-16T07:54:19.977Z,26.14
2022-09-16T07:56:50.365Z,26.58
2022-09-16T07:59:20.370Z,26.83
2022-09-16T08:01:50.562Z,27.26
2022-09-16T08:04:21.021Z,27.52
2022-09-16T08:06:50.332Z,26.93
2022-09-16T08:12:10.916Z,25.53
2022-09-16T08:14:39.999Z,25.95
2022-09-16T08:17:08.916Z,26.36
2022-09-16T08:19:38.461Z,26.74
2022-09-16T08:22:06.897Z,27.09
2022-09-16T08:24:35.722Z,27.37
2022-09-16T08:27:04.860Z,27.57
2022-09-16T08:29:34.662Z,27.53
2022-09-16T08:32:03.742Z,26.68
2022-09-16T08:34:32.048Z,27.25
2022-09-16T08:37:00.327Z,27.56
2022-09-16T08:39:28.866Z,27.75
2022-09-16T08:42:25.587Z,28.15
2022-09-16T08:45:02.596Z,28.32
2022-09-16T08:47:42.585Z,28.48
2022-09-16T08:50:17.282Z,28.66
2022-09-16T08:52:46.822Z,28.86
2022-09-16T08:55:20.045Z,29.09
2022-09-16T08:57:57.838Z,29.24
2022-09-16T09:00:27.959Z,29.28
2022-09-16T09:03:00.108Z,29.39
2022-09-16T09:05:40.199Z,29.50
2022-09-16T09:08:22.531Z,29.60
2022-09-16T09:10:58.091Z,29.19
2022-09-16T09:13:40.445Z,29.23
2022-09-16T09:16:21.965Z,29.23
2022-09-16T09:18:58.603Z,28.75
2022-09-16T09:21:36.739Z,29.01
2022-09-16T09:24:20.449Z,29.17
2022-09-16T09:26:51.529Z,29.25
2022-09-16T09:29:43.830Z,29.43
2022-09-16T09:32:26.233Z,29.58
2022-09-16T09:35:09.292Z,29.73
2022-09-16T09:37:53.961Z,29.89
2022-09-16T09:40:28.721Z,29.90
2022-09-16T09:43:10.670Z,29.95
2022-09-16T09:45:44.863Z,29.85
2022-09-16T09:48:21.993Z,29.86
2022-09-16T09:50:51.791Z,29.88
2022-09-16T09:53:26.139Z,30.04
2022-09-16T09:56:01.627Z,30.16
2022-09-16T09:58:38.387Z,30.25
2022-09-16T10:01:07.047Z,30.32
2022-09-16T10:03:38.029Z,30.38
2022-09-16T10:06:06.897Z,30.34
2022-09-16T10:08:42.526Z,30.33
2022-09-16T10:11:18.325Z,30.31
2022-09-16T10:13:51.587Z,28.43
2022-09-16T10:16:22.490Z,26.91
2022-09-16T10:19:00.016Z,27.87
2022-09-16T10:21:41.144Z,28.33
2022-09-16T10:24:29.228Z,28.61
2022-09-16T10:26:58.384Z,28.47
2022-09-16T10:29:27.172Z,28.77
2022-09-16T10:31:58.633Z,28.95
2022-09-16T10:34:33.698Z,28.89
2022-09-16T10:37:06.509Z,28.94
2022-09-16T10:39:35.528Z,29.04
2022-09-16T10:42:06.721Z,29.05
2022-09-16T10:44:38.177Z,29.08
2022-09-16T10:47:15.548Z,29.00
2022-09-16T10:49:49.832Z,28.99
2022-09-16T10:52:19.451Z,29.00
2022-09-16T10:54:49.089Z,29.02
2022-09-16T10:57:26.588Z,29.14
2022-09-16T11:00:00.224Z,29.14
2022-09-16T11:02:44.773Z,29.13
2022-09-16T11:05:26.212Z,29.18
2022-09-16T11:08:03.909Z,29.25
2022-09-16T11:10:43.134Z,29.24
2022-09-16T11:13:31.097Z,29.29
2022-09-16T11:16:17.611Z,29.20
2022-09-16T11:18:55.328Z,29.08
2022-09-16T11:21:55.861Z,29.14
2022-09-16T11:24:43.473Z,29.09
2022-09-16T11:27:21.853Z,29.02
2022-09-16T11:30:00.211Z,28.89
2022-09-16T11:32:40.325Z,27.21
2022-09-16T11:35:34.896Z,27.41
2022-09-16T11:38:16.515Z,27.24
2022-09-16T11:40:48.936Z,27.41
2022-09-16T11:43:54.344Z,27.57
2022-09-16T11:46:32.481Z,27.46
2022-09-16T11:49:28.710Z,27.57
2022-09-16T11:52:10.357Z,27.50
2022-09-16T11:55:07.491Z,27.02
2022-09-16T11:57:41.089Z,26.86
2022-09-16T12:00:13.936Z,26.89
2022-09-16T12:02:47.859Z,26.94
2022-09-16T12:05:21.751Z,26.89
2022-09-16T12:07:57.589Z,26.79
2022-09-16T12:10:33.685Z,26.95
2022-09-16T12:13:09.316Z,26.49
2022-09-16T12:15:44.419Z,26.51
2022-09-16T12:18:18.448Z,26.43
2022-09-16T12:20:52.179Z,26.34
2022-09-16T12:23:24.257Z,26.19
2022-09-16T12:26:05.811Z,26.27
2022-09-16T12:28:38.892Z,26.27
2022-09-16T12:31:15.364Z,26.44
2022-09-16T12:33:50.676Z,26.42
2022-09-16T12:36:24.804Z,26.60
2022-09-16T12:38:53.473Z,26.61
2022-09-16T12:41:46.081Z,26.72
2022-09-16T12:44:47.294Z,26.59
2022-09-16T12:47:36.606Z,26.48
2022-09-16T12:50:29.192Z,26.45
2022-09-16T12:53:25.176Z,26.51
2022-09-16T12:56:07.772Z,26.40
2022-09-16T12:59:00.364Z,26.55
2022-09-16T13:01:33.809Z,26.56
2022-09-16T13:04:10.026Z,26.59
2022-09-16T13:06:46.096Z,26.53
2022-09-16T13:09:22.751Z,26.68
2022-09-16T13:14:49.019Z,26.67
2022-09-16T13:17:29.696Z,26.73
2022-09-16T13:20:05.713Z,26.64
2022-09-16T13:22:45.347Z,26.39
2022-09-16T13:25:23.388Z,26.44
2022-09-16T13:27:58.625Z,26.67
2022-09-16T13:30:34.830Z,26.57
2022-09-16T13:33:26.496Z,26.44
2022-09-16T13:36:17.722Z,26.71
2022-09-16T13:38:49.719Z,26.84
2022-09-16T13:41:32.776Z,27.02
2022-09-16T13:44:02.095Z,26.98
2022-09-16T13:46:35.006Z,26.98
2022-09-16T13:49:19.916Z,26.98
2022-09-16T13:51:50.781Z,26.60
2022-09-16T13:54:28.254Z,26.71
2022-09-16T13:57:19.106Z,26.65
2022-09-16T14:00:08.769Z,26.35
2022-09-16T14:02:50.191Z,26.40
2022-09-16T14:05:32.275Z,26.28
2022-09-16T14:08:11.914Z,26.44
2022-09-16T14:10:48.543Z,26.55
2022-09-16T14:13:19.650Z,26.58
2022-09-16T14:15:51.242Z,26.73
2022-09-16T14:18:25.440Z,26.69
2022-09-16T14:21:02.385Z,26.61
2022-09-16T14:23:33.050Z,26.61
2022-09-16T14:26:12.167Z,26.69
2022-09-16T14:28:41.200Z,26.43
2022-09-16T14:31:14.687Z,26.26
2022-09-16T14:33:49.334Z,26.37
2022-09-16T14:36:24.183Z,26.31
2022-09-16T14:38:58.652Z,26.20
2022-09-16T14:41:31.892Z,26.04
2022-09-16T14:44:09.577Z,26.17
2022-09-16T14:46:43.480Z,25.99
2022-09-16T14:49:16.069Z,26.05
2022-09-16T14:51:47.739Z,26.17
2022-09-16T14:54:20.635Z,26.37
2022-09-16T14:57:00.089Z,26.44
2022-09-16T14:59:32.367Z,26.32
2022-09-16T15:02:05.233Z,26.17
2022-09-16T15:04:40.287Z,25.58
2022-09-16T15:07:17.403Z,25.52
2022-09-16T15:09:52.015Z,25.77
2022-09-16T15:12:29.352Z,25.77
2022-09-16T15:14:58.471Z,25.87
2022-09-16T15:17:29.131Z,25.90
2022-09-16T15:20:00.919Z,25.76
2022-09-16T15:22:29.932Z,25.48
2022-09-16T15:24:59.664Z,25.29
2022-09-16T15:27:29.739Z,25.47
2022-09-16T15:30:00.330Z,25.38
2022-09-16T15:32:31.947Z,25.46
2022-09-16T15:35:16.917Z,25.52
2022-09-16T15:37:46.008Z,25.38
2022-09-16T15:40:32.046Z,25.38
2022-09-16T15:43:25.976Z,25.58
2022-09-16T15:46:03.141Z,25.65
2022-09-16T15:48:35.163Z,25.46
2022-09-16T15:51:09.532Z,25.58
2022-09-16T15:53:45.898Z,25.46
2022-09-16T15:56:30.039Z,25.53
2022-09-16T15:59:01.104Z,25.41
2022-09-16T16:01:41.060Z,25.53
2022-09-16T16:04:13.388Z,25.43
2022-09-16T16:06:49.257Z,25.37
2022-09-16T16:09:32.919Z,25.40
2022-09-16T16:12:03.036Z,25.19
2022-09-16T16:14:32.969Z,25.10
2022-09-16T16:17:18.828Z,25.11
2022-09-16T16:19:49.528Z,25.22
2022-09-16T16:22:20.751Z,24.99
2022-09-16T16:24:49.518Z,24.78
2022-09-16T16:27:17.787Z,24.74
2022-09-16T16:29:46.031Z,24.71
2022-09-16T16:32:16.350Z,24.89
2022-09-16T16:34:47.793Z,24.41
2022-09-16T16:37:40.374Z,23.82
2022-09-16T16:40:08.786Z,23.60
2022-09-16T16:42:37.375Z,22.74
2022-09-16T16:45:06.580Z,21.60
2022-09-16T16:47:34.903Z,21.95
2022-09-16T16:50:03.420Z,22.13
2022-09-16T16:52:31.874Z,22.40
2022-09-16T16:55:00.136Z,22.56
2022-09-16T16:57:30.019Z,22.83
2022-09-16T16:59:58.774Z,22.93
2022-09-16T17:02:27.200Z,22.96
2022-09-16T17:04:56.150Z,23.06
2022-09-16T17:07:26.595Z,23.18
2022-09-16T17:09:57.429Z,23.15
2022-09-16T17:12:26.479Z,23.22
2022-09-16T17:14:56.166Z,23.25
2022-09-16T17:17:30.475Z,23.26
2022-09-16T17:20:00.712Z,23.13
2022-09-16T17:22:29.207Z,23.30
2022-09-16T17:24:57.538Z,23.47
2022-09-16T17:27:27.740Z,23.55
2022-09-16T17:30:01.029Z,23.54
2022-09-16T17:32:30.168Z,23.63
2022-09-16T17:34:58.496Z,23.59
2022-09-16T17:37:26.837Z,23.57
2022-09-16T17:39:55.322Z,23.38
2022-09-16T17:42:23.770Z,23.39
2022-09-16T17:44:52.158Z,23.57
2022-09-16T17:47:22.020Z,23.48
2022-09-16T17:49:50.311Z,23.30
2022-09-16T17:52:18.572Z,23.25
2022-09-16T17:54:47.063Z,23.43
2022-09-16T17:57:15.362Z,23.41
2022-09-16T17:59:43.739Z,23.52
2022-09-16T18:02:12.288Z,23.55
2022-09-16T18:04:44.086Z,23.68
2022-09-16T18:07:12.397Z,23.63
2022-09-16T18:09:40.813Z,23.07
2022-09-16T18:12:09.203Z,21.99
2022-09-16T18:14:37.554Z,21.64
2022-09-16T18:17:06.170Z,21.85
2022-09-16T18:19:34.657Z,22.29
2022-09-16T18:22:04.845Z,22.62
2022-09-16T18:24:33.376Z,22.86
2022-09-16T18:27:02.538Z,23.04
2022-09-16T18:29:31.575Z,23.22
2022-09-16T18:32:00.325Z,23.51
2022-09-16T18:34:33.270Z,23.58
2022-09-16T18:37:02.680Z,23.59
2022-09-16T18:39:32.513Z,23.72
2022-09-16T18:42:00.928Z,23.86
2022-09-16T18:44:29.505Z,23.85
2022-09-16T18:46:57.811Z,23.83
2022-09-16T18:49:28.996Z,23.94
2022-09-16T18:51:57.828Z,24.06
2022-09-16T18:54:28.794Z,24.08
2022-09-16T18:57:00.171Z,24.13
2022-09-16T18:59:30.671Z,23.95
2022-09-16T19:02:01.380Z,23.83
2022-09-16T19:04:32.768Z,23.87
2022-09-16T19:07:07.944Z,23.58
2022-09-16T19:09:39.752Z,23.69
2022-09-16T19:12:11.345Z,23.75
2022-09-16T19:14:40.958Z,23.87
2022-09-16T19:17:09.918Z,23.50
2022-09-16T19:19:38.861Z,23.37
2022-09-16T19:22:07.432Z,23.42
2022-09-16T19:24:37.278Z,23.23
2022-09-16T19:27:05.890Z,23.25
2022-09-16T19:29:35.882Z,22.70
2022-09-16T19:32:04.437Z,21.79
2022-09-16T19:34:32.979Z,21.71
2022-09-16T19:37:02.094Z,21.76
2022-09-16T19:39:31.809Z,21.58
2022-09-16T19:42:03.562Z,21.53
2022-09-16T19:44:32.554Z,21.18
2022-09-16T19:47:02.545Z,21.07
2022-09-16T19:49:31.104Z,20.87
2022-09-16T19:51:59.899Z,20.80
2022-09-16T19:54:28.539Z,20.79
2022-09-16T19:56:57.300Z,20.75
2022-09-16T19:59:26.688Z,20.85
2022-09-16T20:01:55.259Z,21.09
2022-09-16T20:04:25.519Z,21.15
2022-09-16T20:06:56.580Z,21.33
2022-09-16T20:09:27.794Z,21.43
2022-09-16T20:11:56.716Z,21.55
2022-09-16T20:14:33.575Z,21.69
2022-09-16T20:17:03.021Z,21.84
2022-09-16T20:19:33.991Z,21.83
2022-09-16T20:22:02.814Z,21.87
2022-09-16T20:24:31.512Z,21.84
2022-09-16T20:27:00.036Z,21.82
2022-09-16T20:29:28.353Z,22.04
2022-09-16T20:31:56.986Z,22.18
2022-09-16T20:34:25.391Z,22.32
2022-09-16T20:36:57.101Z,22.37
2022-09-16T20:39:25.624Z,22.49
2022-09-16T20:41:54.085Z,22.32
2022-09-16T20:44:22.549Z,22.42
2022-09-16T20:46:51.456Z,22.51
2022-09-16T20:49:23.026Z,22.64
2022-09-16T20:51:52.277Z,22.75
2022-09-16T20:54:21.987Z,22.78
2022-09-16T20:56:51.190Z,22.85
2022-09-16T20:59:21.530Z,22.89
2022-09-16T21:01:50.659Z,22.89
2022-09-16T21:04:21.138Z,22.92
2022-09-16T21:06:49.841Z,22.93
2022-09-16T21:09:19.545Z,22.94
2022-09-16T21:11:49.803Z,22.90
2022-09-16T21:14:21.703Z,22.72
2022-09-16T21:16:51.683Z,22.52
2022-09-16T21:19:20.320Z,22.55
2022-09-16T21:21:48.696Z,22.54
2022-09-16T21:24:18.383Z,22.61
2022-09-16T21:26:47.265Z,22.69
2022-09-16T21:29:21.238Z,22.71
2022-09-16T21:31:50.470Z,22.68
2022-09-16T21:34:21.989Z,22.69
2022-09-16T21:36:51.700Z,22.73
2022-09-16T21:39:21.864Z,22.77
2022-09-16T21:41:50.731Z,22.81
2022-09-16T21:44:20.715Z,22.73
2022-09-16T21:46:49.735Z,22.65
2022-09-16T21:49:22.899Z,22.49
2022-09-16T21:51:52.264Z,22.18
2022-09-16T21:54:21.348Z,21.92
2022-09-16T21:56:50.962Z,21.95
2022-09-16T21:59:21.441Z,22.04
2022-09-16T22:01:51.105Z,22.14
2022-09-16T22:04:21.854Z,22.18
2022-09-16T22:06:50.861Z,22.21
2022-09-16T22:09:19.212Z,22.12
2022-09-16T22:11:48.179Z,22.20
2022-09-16T22:14:17.415Z,21.41
2022-09-16T22:16:47.222Z,21.33
2022-09-16T22:19:17.891Z,21.61
2022-09-16T22:21:49.634Z,21.79
2022-09-16T22:24:20.438Z,21.90
2022-09-16T22:26:50.600Z,21.97
2022-09-16T22:29:19.410Z,22.09
2022-09-16T22:31:49.653Z,22.24
2022-09-16T22:34:18.403Z,22.25
2022-09-16T22:36:46.792Z,22.27
2022-09-16T22:39:17.801Z,22.25
2022-09-16T22:41:46.689Z,22.15
2022-09-16T22:44:15.410Z,22.24
2022-09-16T22:46:46.313Z,22.20
2022-09-16T22:49:17.165Z,22.24
2022-09-16T22:51:46.116Z,22.17
2022-09-16T22:54:15.848Z,22.11
2022-09-16T22:56:45.246Z,22.21
2022-09-16T22:59:18.263Z,22.29
2022-09-16T23:01:48.098Z,22.30
2022-09-16T23:04:18.531Z,22.36
2022-09-16T23:06:47.369Z,22.18
2022-09-16T23:09:16.013Z,22.23
2022-09-16T23:11:44.802Z,22.07
2022-09-16T23:14:15.298Z,22.05
2022-09-16T23:16:43.804Z,22.08
2022-09-16T23:19:13.078Z,22.12
2022-09-16T23:21:43.762Z,22.06
2022-09-16T23:24:15.769Z,22.15
2022-09-16T23:26:44.607Z,22.17
2022-09-16T23:29:14.431Z,22.24
2022-09-16T23:31:45.457Z,22.24
2022-09-16T23:34:16.856Z,22.17
2022-09-16T23:36:47.069Z,22.20
2022-09-16T23:39:16.957Z,22.26
2022-09-16T23:41:46.019Z,22.30
2022-09-16T23:44:16.086Z,22.31
2022-09-16T23:46:45.089Z,22.29
2022-09-16T23:49:16.952Z,22.30
2022-09-16T23:51:47.359Z,22.37
2022-09-16T23:54:17.279Z,22.35
2022-09-16T23:56:45.927Z,22.43
2022-09-16T23:59:14.500Z,22.44
